Terminal Aerodrome Forecast
Issued by NWS

Home | Current Version | Previous Version | Text Only | Print | Product List | Glossary On
Versions: 1 2 3 4 5 6 7 8 9 10 11 12 13 14 15 16 17 18 19 20 21 22 23 24 25 26 27 28
000
FTUS46 KSGX 191700
TAFSAN
TAF
KSAN 191732Z 1918/2024 29005KT P6SM BKN025
     FM191900 29009KT P6SM FEW025
     FM200200 30005KT P6SM SCT015
     FM200800 VRB04KT P6SM BKN010
     FM201700 VRB04KT P6SM SCT012
     FM202000 25008KT P6SM FEW012=

USA.gov is the U.S. government's official web portal to all federal, state and local government web resources and services.